sensor_id;sensor_type;location;lat;lon;timestamp;temperature;humidity
43346;DHT22;28937;51.160;4.146;2022-10-23T00:00:36;17.40;99.90
43346;DHT22;28937;51.160;4.146;2022-10-23T00:03:02;17.40;99.90
43346;DHT22;28937;51.160;4.146;2022-10-23T00:05:28;17.40;99.90
43346;DHT22;28937;51.160;4.146;2022-10-23T00:07:56;17.30;99.90
43346;DHT22;28937;51.160;4.146;2022-10-23T00:10:24;17.30;99.90
43346;DHT22;28937;51.160;4.146;2022-10-23T00:12:51;17.30;99.90
43346;DHT22;28937;51.160;4.146;2022-10-23T00:15:20;17.30;99.90
43346;DHT22;28937;51.160;4.146;2022-10-23T00:17:46;17.30;99.90
43346;DHT22;28937;51.160;4.146;2022-10-23T00:20:13;17.30;99.90
43346;DHT22;28937;51.160;4.146;2022-10-23T00:22:39;17.30;99.90
43346;DHT22;28937;51.160;4.146;2022-10-23T00:25:06;17.30;99.90
43346;DHT22;28937;51.160;4.146;2022-10-23T00:27:33;17.20;99.90
43346;DHT22;28937;51.160;4.146;2022-10-23T00:29:58;17.20;99.90
43346;DHT22;28937;51.160;4.146;2022-10-23T00:32:24;17.20;99.90
43346;DHT22;28937;51.160;4.146;2022-10-23T00:34:50;17.20;99.90
43346;DHT22;28937;51.160;4.146;2022-10-23T00:37:15;17.20;99.90
43346;DHT22;28937;51.160;4.146;2022-10-23T00:39:41;17.20;99.90
43346;DHT22;28937;51.160;4.146;2022-10-23T00:42:09;17.20;99.90
43346;DHT22;28937;51.160;4.146;2022-10-23T00:47:00;17.20;99.90
43346;DHT22;28937;51.160;4.146;2022-10-23T00:49:25;17.20;99.90
43346;DHT22;28937;51.160;4.146;2022-10-23T00:51:56;17.20;99.90
43346;DHT22;28937;51.160;4.146;2022-10-23T00:54:25;17.20;99.90
43346;DHT22;28937;51.160;4.146;2022-10-23T00:57:00;17.20;99.90
43346;DHT22;28937;51.160;4.146;2022-10-23T00:59:26;17.20;99.90
43346;DHT22;28937;51.160;4.146;2022-10-23T01:01:53;17.20;99.90
43346;DHT22;28937;51.160;4.146;2022-10-23T01:04:19;17.20;99.90
43346;DHT22;28937;51.160;4.146;2022-10-23T01:07:04;17.20;99.90
43346;DHT22;28937;51.160;4.146;2022-10-23T01:09:38;17.10;99.90
43346;DHT22;28937;51.160;4.146;2022-10-23T01:25:05;17.20;99.90
43346;DHT22;28937;51.160;4.146;2022-10-23T01:27:41;17.10;99.90
43346;DHT22;28937;51.160;4.146;2022-10-23T01:30:13;17.20;99.90
43346;DHT22;28937;51.160;4.146;2022-10-23T01:33:01;17.20;99.90
43346;DHT22;28937;51.160;4.146;2022-10-23T01:38:52;17.10;99.90
43346;DHT22;28937;51.160;4.146;2022-10-23T01:41:29;17.20;99.90
43346;DHT22;28937;51.160;4.146;2022-10-23T01:44:02;17.10;99.90
43346;DHT22;28937;51.160;4.146;2022-10-23T01:46:29;17.20;99.90
43346;DHT22;28937;51.160;4.146;2022-10-23T01:48:56;17.10;99.90
43346;DHT22;28937;51.160;4.146;2022-10-23T01:51:26;17.10;99.90
43346;DHT22;28937;51.160;4.146;2022-10-23T01:53:56;17.10;99.90
43346;DHT22;28937;51.160;4.146;2022-10-23T01:56:29;17.10;99.90
43346;DHT22;28937;51.160;4.146;2022-10-23T01:58:58;17.10;99.90
43346;DHT22;28937;51.160;4.146;2022-10-23T02:01:28;17.10;99.90
43346;DHT22;28937;51.160;4.146;2022-10-23T02:03:55;17.10;99.90
43346;DHT22;28937;51.160;4.146;2022-10-23T02:06:21;17.10;99.90
43346;DHT22;28937;51.160;4.146;2022-10-23T02:08:47;17.10;99.90
43346;DHT22;28937;51.160;4.146;2022-10-23T02:11:17;17.10;99.90
43346;DHT22;28937;51.160;4.146;2022-10-23T02:22:10;17.00;99.90
43346;DHT22;28937;51.160;4.146;2022-10-23T02:24:57;17.00;99.90
43346;DHT22;28937;51.160;4.146;2022-10-23T02:27:41;17.00;99.90
43346;DHT22;28937;51.160;4.146;2022-10-23T02:30:11;17.00;99.90
43346;DHT22;28937;51.160;4.146;2022-10-23T02:32:46;17.00;99.90
43346;DHT22;28937;51.160;4.146;2022-10-23T02:35:14;17.00;99.90
43346;DHT22;28937;51.160;4.146;2022-10-23T02:37:40;17.00;99.90
43346;DHT22;28937;51.160;4.146;2022-10-23T02:40:07;17.10;99.90
43346;DHT22;28937;51.160;4.146;2022-10-23T02:42:38;17.00;99.90
43346;DHT22;28937;51.160;4.146;2022-10-23T02:45:17;17.00;99.90
43346;DHT22;28937;51.160;4.146;2022-10-23T02:53:32;17.00;99.90
43346;DHT22;28937;51.160;4.146;2022-10-23T02:58:46;17.00;99.90
43346;DHT22;28937;51.160;4.146;2022-10-23T03:01:24;16.90;99.90
43346;DHT22;28937;51.160;4.146;2022-10-23T03:03:52;17.00;99.90
43346;DHT22;28937;51.160;4.146;2022-10-23T03:06:19;16.90;99.90
43346;DHT22;28937;51.160;4.146;2022-10-23T03:09:03;16.90;99.90
43346;DHT22;28937;51.160;4.146;2022-10-23T03:11:29;16.90;99.90
43346;DHT22;28937;51.160;4.146;2022-10-23T03:13:55;16.90;99.90
43346;DHT22;28937;51.160;4.146;2022-10-23T03:16:20;16.90;99.90
43346;DHT22;28937;51.160;4.146;2022-10-23T03:18:46;16.90;99.90
43346;DHT22;28937;51.160;4.146;2022-10-23T03:21:11;16.90;99.90
43346;DHT22;28937;51.160;4.146;2022-10-23T03:23:37;16.90;99.90
43346;DHT22;28937;51.160;4.146;2022-10-23T03:26:03;16.90;99.90
43346;DHT22;28937;51.160;4.146;2022-10-23T03:28:29;16.90;99.90
43346;DHT22;28937;51.160;4.146;2022-10-23T03:30:54;16.90;99.90
43346;DHT22;28937;51.160;4.146;2022-10-23T03:33:21;16.90;99.90
43346;DHT22;28937;51.160;4.146;2022-10-23T03:35:49;16.90;99.90
43346;DHT22;28937;51.160;4.146;2022-10-23T03:38:15;16.80;99.90
43346;DHT22;28937;51.160;4.146;2022-10-23T03:40:41;16.80;99.90
43346;DHT22;28937;51.160;4.146;2022-10-23T03:43:07;16.80;99.90
43346;DHT22;28937;51.160;4.146;2022-10-23T03:45:33;16.80;99.90
43346;DHT22;28937;51.160;4.146;2022-10-23T03:47:58;16.80;99.90
43346;DHT22;28937;51.160;4.146;2022-10-23T03:50:24;16.70;99.90
43346;DHT22;28937;51.160;4.146;2022-10-23T03:52:50;16.70;99.90
43346;DHT22;28937;51.160;4.146;2022-10-23T03:55:15;16.70;99.90
43346;DHT22;28937;51.160;4.146;2022-10-23T03:57:41;16.70;99.90
43346;DHT22;28937;51.160;4.146;2022-10-23T04:00:07;16.70;99.90
43346;DHT22;28937;51.160;4.146;2022-10-23T04:02:33;16.70;99.90
43346;DHT22;28937;51.160;4.146;2022-10-23T04:04:59;16.80;99.90
43346;DHT22;28937;51.160;4.146;2022-10-23T04:07:24;16.80;99.90
43346;DHT22;28937;51.160;4.146;2022-10-23T04:09:50;16.80;99.90
43346;DHT22;28937;51.160;4.146;2022-10-23T04:12:15;16.70;99.90
43346;DHT22;28937;51.160;4.146;2022-10-23T04:14:41;16.70;99.90
43346;DHT22;28937;51.160;4.146;2022-10-23T04:17:06;16.70;99.90
43346;DHT22;28937;51.160;4.146;2022-10-23T04:19:32;16.70;99.90
43346;DHT22;28937;51.160;4.146;2022-10-23T04:21:57;16.70;99.90
43346;DHT22;28937;51.160;4.146;2022-10-23T04:24:24;16.80;99.90
43346;DHT22;28937;51.160;4.146;2022-10-23T04:26:50;16.70;99.90
43346;DHT22;28937;51.160;4.146;2022-10-23T04:29:15;16.70;99.90
43346;DHT22;28937;51.160;4.146;2022-10-23T04:31:41;16.70;99.90
43346;DHT22;28937;51.160;4.146;2022-10-23T04:34:06;16.70;99.90
43346;DHT22;28937;51.160;4.146;2022-10-23T04:36:32;16.70;99.90
43346;DHT22;28937;51.160;4.146;2022-10-23T04:38:58;16.70;99.90
43346;DHT22;28937;51.160;4.146;2022-10-23T04:41:23;16.70;99.90
43346;DHT22;28937;51.160;4.146;2022-10-23T04:43:49;16.70;99.90
43346;DHT22;28937;51.160;4.146;2022-10-23T04:46:14;16.70;99.90
43346;DHT22;28937;51.160;4.146;2022-10-23T04:48:40;16.70;99.90
43346;DHT22;28937;51.160;4.146;2022-10-23T04:51:05;16.80;99.90
43346;DHT22;28937;51.160;4.146;2022-10-23T04:53:31;16.80;99.90
43346;DHT22;28937;51.160;4.146;2022-10-23T04:55:58;16.80;99.90
43346;DHT22;28937;51.160;4.146;2022-10-23T04:58:25;16.80;99.90
43346;DHT22;28937;51.160;4.146;2022-10-23T05:00:51;16.80;99.90
43346;DHT22;28937;51.160;4.146;2022-10-23T05:03:17;16.80;99.90
43346;DHT22;28937;51.160;4.146;2022-10-23T05:05:44;16.80;99.90
43346;DHT22;28937;51.160;4.146;2022-10-23T05:08:09;16.80;99.90
43346;DHT22;28937;51.160;4.146;2022-10-23T05:10:35;16.70;99.90
43346;DHT22;28937;51.160;4.146;2022-10-23T05:13:02;16.70;99.90
43346;DHT22;28937;51.160;4.146;2022-10-23T05:15:27;16.70;99.90
43346;DHT22;28937;51.160;4.146;2022-10-23T05:18:03;16.70;99.90
43346;DHT22;28937;51.160;4.146;2022-10-23T05:20:34;16.70;99.90
43346;DHT22;28937;51.160;4.146;2022-10-23T05:23:01;16.80;99.90
43346;DHT22;28937;51.160;4.146;2022-10-23T05:25:29;16.90;99.90
43346;DHT22;28937;51.160;4.146;2022-10-23T05:27:54;16.90;99.90
43346;DHT22;28937;51.160;4.146;2022-10-23T05:30:20;16.90;99.90
43346;DHT22;28937;51.160;4.146;2022-10-23T05:32:46;16.90;99.90
43346;DHT22;28937;51.160;4.146;2022-10-23T05:35:16;16.80;99.90
43346;DHT22;28937;51.160;4.146;2022-10-23T05:37:44;16.90;99.90
43346;DHT22;28937;51.160;4.146;2022-10-23T05:40:11;16.90;99.90
43346;DHT22;28937;51.160;4.146;2022-10-23T05:42:37;16.80;99.90
43346;DHT22;28937;51.160;4.146;2022-10-23T05:45:03;16.80;99.90
43346;DHT22;28937;51.160;4.146;2022-10-23T05:47:28;16.80;99.90
43346;DHT22;28937;51.160;4.146;2022-10-23T05:49:56;16.80;99.90
43346;DHT22;28937;51.160;4.146;2022-10-23T05:52:21;16.70;99.90
43346;DHT22;28937;51.160;4.146;2022-10-23T05:54:50;16.80;99.90
43346;DHT22;28937;51.160;4.146;2022-10-23T05:57:15;16.80;99.90
43346;DHT22;28937;51.160;4.146;2022-10-23T05:59:41;16.80;99.90
43346;DHT22;28937;51.160;4.146;2022-10-23T06:02:06;16.80;99.90
43346;DHT22;28937;51.160;4.146;2022-10-23T06:04:33;16.80;99.90
43346;DHT22;28937;51.160;4.146;2022-10-23T06:06:59;16.80;99.90
43346;DHT22;28937;51.160;4.146;2022-10-23T06:09:24;16.80;99.90
43346;DHT22;28937;51.160;4.146;2022-10-23T06:11:50;16.70;99.90
43346;DHT22;28937;51.160;4.146;2022-10-23T06:14:15;16.70;99.90
43346;DHT22;28937;51.160;4.146;2022-10-23T06:16:41;16.70;99.90
43346;DHT22;28937;51.160;4.146;2022-10-23T06:19:09;16.70;99.90
43346;DHT22;28937;51.160;4.146;2022-10-23T06:21:36;16.70;99.90
43346;DHT22;28937;51.160;4.146;2022-10-23T06:24:02;16.80;99.90
43346;DHT22;28937;51.160;4.146;2022-10-23T06:26:28;16.80;99.90
43346;DHT22;28937;51.160;4.146;2022-10-23T06:28:54;16.70;99.90
43346;DHT22;28937;51.160;4.146;2022-10-23T06:31:19;16.70;99.90
43346;DHT22;28937;51.160;4.146;2022-10-23T06:33:51;16.70;99.90
43346;DHT22;28937;51.160;4.146;2022-10-23T06:36:16;16.60;99.90
43346;DHT22;28937;51.160;4.146;2022-10-23T06:38:42;16.70;99.90
43346;DHT22;28937;51.160;4.146;2022-10-23T06:41:13;16.70;99.90
43346;DHT22;28937;51.160;4.146;2022-10-23T06:43:39;16.80;99.90
43346;DHT22;28937;51.160;4.146;2022-10-23T06:46:04;16.90;99.90
43346;DHT22;28937;51.160;4.146;2022-10-23T06:48:30;17.00;99.90
43346;DHT22;28937;51.160;4.146;2022-10-23T06:50:57;17.00;99.90
43346;DHT22;28937;51.160;4.146;2022-10-23T06:53:22;17.10;99.90
43346;DHT22;28937;51.160;4.146;2022-10-23T06:55:50;17.10;99.90
43346;DHT22;28937;51.160;4.146;2022-10-23T06:58:16;17.20;99.90
43346;DHT22;28937;51.160;4.146;2022-10-23T07:00:41;17.20;99.90
43346;DHT22;28937;51.160;4.146;2022-10-23T07:03:08;17.30;99.90
43346;DHT22;28937;51.160;4.146;2022-10-23T07:05:35;17.20;99.90
43346;DHT22;28937;51.160;4.146;2022-10-23T07:08:01;17.20;99.90
43346;DHT22;28937;51.160;4.146;2022-10-23T07:10:28;17.10;99.90
43346;DHT22;28937;51.160;4.146;2022-10-23T07:12:53;17.10;99.90
43346;DHT22;28937;51.160;4.146;2022-10-23T07:15:25;17.20;99.90
43346;DHT22;28937;51.160;4.146;2022-10-23T07:17:51;17.10;99.90
43346;DHT22;28937;51.160;4.146;2022-10-23T07:20:16;17.20;99.90
43346;DHT22;28937;51.160;4.146;2022-10-23T07:22:42;17.20;99.90
43346;DHT22;28937;51.160;4.146;2022-10-23T07:25:07;17.30;99.90
43346;DHT22;28937;51.160;4.146;2022-10-23T07:27:36;17.20;99.90
43346;DHT22;28937;51.160;4.146;2022-10-23T07:30:02;17.20;99.90
43346;DHT22;28937;51.160;4.146;2022-10-23T07:32:28;17.20;99.90
43346;DHT22;28937;51.160;4.146;2022-10-23T07:34:54;17.10;99.90
43346;DHT22;28937;51.160;4.146;2022-10-23T07:37:19;17.10;99.90
43346;DHT22;28937;51.160;4.146;2022-10-23T07:39:45;17.10;99.90
43346;DHT22;28937;51.160;4.146;2022-10-23T07:42:10;17.20;99.90
43346;DHT22;28937;51.160;4.146;2022-10-23T07:44:36;17.20;99.90
43346;DHT22;28937;51.160;4.146;2022-10-23T07:47:01;17.30;99.90
43346;DHT22;28937;51.160;4.146;2022-10-23T07:49:27;17.30;99.90
43346;DHT22;28937;51.160;4.146;2022-10-23T07:51:52;17.30;99.90
43346;DHT22;28937;51.160;4.146;2022-10-23T07:54:18;17.30;99.90
43346;DHT22;28937;51.160;4.146;2022-10-23T07:56:44;17.30;99.90
43346;DHT22;28937;51.160;4.146;2022-10-23T07:59:11;17.30;99.90
43346;DHT22;28937;51.160;4.146;2022-10-23T08:01:38;17.30;99.90
43346;DHT22;28937;51.160;4.146;2022-10-23T08:04:04;17.30;99.90
43346;DHT22;28937;51.160;4.146;2022-10-23T08:06:29;17.30;99.90
43346;DHT22;28937;51.160;4.146;2022-10-23T08:08:55;17.20;99.90
43346;DHT22;28937;51.160;4.146;2022-10-23T08:11:23;17.20;99.90
43346;DHT22;28937;51.160;4.146;2022-10-23T08:13:56;17.20;99.90
43346;DHT22;28937;51.160;4.146;2022-10-23T08:16:22;17.30;99.90
43346;DHT22;28937;51.160;4.146;2022-10-23T08:18:49;17.30;99.90
43346;DHT22;28937;51.160;4.146;2022-10-23T08:21:15;17.30;99.90
43346;DHT22;28937;51.160;4.146;2022-10-23T08:23:42;17.30;99.90
43346;DHT22;28937;51.160;4.146;2022-10-23T08:26:08;17.30;99.90
43346;DHT22;28937;51.160;4.146;2022-10-23T08:28:34;17.30;99.90
43346;DHT22;28937;51.160;4.146;2022-10-23T08:31:06;17.30;99.90
43346;DHT22;28937;51.160;4.146;2022-10-23T08:33:32;17.30;99.90
43346;DHT22;28937;51.160;4.146;2022-10-23T08:35:57;17.30;99.90
43346;DHT22;28937;51.160;4.146;2022-10-23T08:38:23;17.30;99.90
43346;DHT22;28937;51.160;4.146;2022-10-23T08:40:48;17.30;99.90
43346;DHT22;28937;51.160;4.146;2022-10-23T08:43:45;17.30;99.90
43346;DHT22;28937;51.160;4.146;2022-10-23T08:46:14;17.30;99.90
43346;DHT22;28937;51.160;4.146;2022-10-23T08:48:48;17.30;99.90
43346;DHT22;28937;51.160;4.146;2022-10-23T08:51:22;17.30;99.90
43346;DHT22;28937;51.160;4.146;2022-10-23T08:54:00;17.30;99.90
43346;DHT22;28937;51.160;4.146;2022-10-23T08:56:32;17.30;99.90
43346;DHT22;28937;51.160;4.146;2022-10-23T08:59:03;17.40;99.90
43346;DHT22;28937;51.160;4.146;2022-10-23T09:01:41;17.40;99.90
43346;DHT22;28937;51.160;4.146;2022-10-23T09:04:12;17.40;99.90
43346;DHT22;28937;51.160;4.146;2022-10-23T09:09:59;17.40;99.90
43346;DHT22;28937;51.160;4.146;2022-10-23T09:12:29;17.40;99.90
43346;DHT22;28937;51.160;4.146;2022-10-23T09:17:39;17.40;99.90
43346;DHT22;28937;51.160;4.146;2022-10-23T09:20:19;17.50;99.90
43346;DHT22;28937;51.160;4.146;2022-10-23T09:22:47;17.40;99.90
43346;DHT22;28937;51.160;4.146;2022-10-23T09:25:40;17.40;99.90
43346;DHT22;28937;51.160;4.146;2022-10-23T09:28:10;17.40;99.90
43346;DHT22;28937;51.160;4.146;2022-10-23T09:30:41;17.40;99.90
43346;DHT22;28937;51.160;4.146;2022-10-23T09:33:21;17.50;99.90
43346;DHT22;28937;51.160;4.146;2022-10-23T09:36:03;17.50;99.90
43346;DHT22;28937;51.160;4.146;2022-10-23T09:38:31;17.50;99.90
43346;DHT22;28937;51.160;4.146;2022-10-23T09:41:14;17.50;99.90
43346;DHT22;28937;51.160;4.146;2022-10-23T09:43:40;17.50;99.90
43346;DHT22;28937;51.160;4.146;2022-10-23T09:46:07;17.50;99.90
43346;DHT22;28937;51.160;4.146;2022-10-23T09:48:35;17.50;99.90
43346;DHT22;28937;51.160;4.146;2022-10-23T09:51:15;17.50;99.90
43346;DHT22;28937;51.160;4.146;2022-10-23T09:53:56;17.50;99.90
43346;DHT22;28937;51.160;4.146;2022-10-23T09:56:34;17.50;99.90
43346;DHT22;28937;51.160;4.146;2022-10-23T10:01:31;17.60;99.90
43346;DHT22;28937;51.160;4.146;2022-10-23T10:03:58;17.60;99.90
43346;DHT22;28937;51.160;4.146;2022-10-23T10:06:25;17.60;99.90
43346;DHT22;28937;51.160;4.146;2022-10-23T10:08:54;17.60;99.90
43346;DHT22;28937;51.160;4.146;2022-10-23T10:11:46;17.60;99.90
43346;DHT22;28937;51.160;4.146;2022-10-23T10:16:49;17.60;99.90
43346;DHT22;28937;51.160;4.146;2022-10-23T10:22:41;17.60;99.90
43346;DHT22;28937;51.160;4.146;2022-10-23T10:25:35;17.70;99.90
43346;DHT22;28937;51.160;4.146;2022-10-23T10:33:48;17.70;99.90
43346;DHT22;28937;51.160;4.146;2022-10-23T10:36:40;17.80;99.90
43346;DHT22;28937;51.160;4.146;2022-10-23T10:39:20;17.80;99.90
43346;DHT22;28937;51.160;4.146;2022-10-23T10:44:59;17.80;99.90
43346;DHT22;28937;51.160;4.146;2022-10-23T10:47:39;17.80;99.90
43346;DHT22;28937;51.160;4.146;2022-10-23T10:50:28;17.80;99.90
43346;DHT22;28937;51.160;4.146;2022-10-23T10:55:38;17.80;99.90
43346;DHT22;28937;51.160;4.146;2022-10-23T10:58:13;17.80;99.90
43346;DHT22;28937;51.160;4.146;2022-10-23T11:00:42;17.90;99.90
43346;DHT22;28937;51.160;4.146;2022-10-23T11:03:29;17.90;99.90
43346;DHT22;28937;51.160;4.146;2022-10-23T11:05:59;17.90;99.90
43346;DHT22;28937;51.160;4.146;2022-10-23T11:08:37;17.90;99.90
43346;DHT22;28937;51.160;4.146;2022-10-23T11:11:10;17.90;99.90
43346;DHT22;28937;51.160;4.146;2022-10-23T11:13:39;18.00;99.90
43346;DHT22;28937;51.160;4.146;2022-10-23T11:16:13;18.00;99.90
43346;DHT22;28937;51.160;4.146;2022-10-23T11:18:43;18.00;99.90
43346;DHT22;28937;51.160;4.146;2022-10-23T11:21:29;18.00;99.90
43346;DHT22;28937;51.160;4.146;2022-10-23T11:27:25;18.10;99.90
43346;DHT22;28937;51.160;4.146;2022-10-23T11:30:15;18.10;99.90
43346;DHT22;28937;51.160;4.146;2022-10-23T11:33:07;18.10;99.90
43346;DHT22;28937;51.160;4.146;2022-10-23T11:38:28;18.10;99.90
43346;DHT22;28937;51.160;4.146;2022-10-23T11:41:01;18.10;99.90
43346;DHT22;28937;51.160;4.146;2022-10-23T11:43:53;18.10;99.90
43346;DHT22;28937;51.160;4.146;2022-10-23T11:48:52;18.10;99.90
43346;DHT22;28937;51.160;4.146;2022-10-23T11:54:24;18.20;99.90
43346;DHT22;28937;51.160;4.146;2022-10-23T11:57:15;18.20;99.90
43346;DHT22;28937;51.160;4.146;2022-10-23T12:02:29;18.30;99.90
43346;DHT22;28937;51.160;4.146;2022-10-23T12:04:59;18.30;99.90
43346;DHT22;28937;51.160;4.146;2022-10-23T12:07:29;18.40;99.90
43346;DHT22;28937;51.160;4.146;2022-10-23T12:10:02;18.30;99.90
43346;DHT22;28937;51.160;4.146;2022-10-23T12:12:31;18.40;99.90
43346;DHT22;28937;51.160;4.146;2022-10-23T12:15:27;18.40;99.90
43346;DHT22;28937;51.160;4.146;2022-10-23T12:18:06;18.40;99.90
43346;DHT22;28937;51.160;4.146;2022-10-23T12:20:43;18.40;99.90
43346;DHT22;28937;51.160;4.146;2022-10-23T12:23:14;18.40;99.90
43346;DHT22;28937;51.160;4.146;2022-10-23T12:26:01;18.40;99.90
43346;DHT22;28937;51.160;4.146;2022-10-23T12:28:35;18.50;99.90
43346;DHT22;28937;51.160;4.146;2022-10-23T12:38:47;18.60;99.90
43346;DHT22;28937;51.160;4.146;2022-10-23T12:43:50;18.60;99.90
43346;DHT22;28937;51.160;4.146;2022-10-23T12:49:01;18.60;99.90
43346;DHT22;28937;51.160;4.146;2022-10-23T12:51:31;18.70;99.90
43346;DHT22;28937;51.160;4.146;2022-10-23T12:53:57;18.70;99.90
43346;DHT22;28937;51.160;4.146;2022-10-23T12:56:24;18.70;99.90
43346;DHT22;28937;51.160;4.146;2022-10-23T12:58:55;18.80;99.90
43346;DHT22;28937;51.160;4.146;2022-10-23T13:01:31;18.70;99.90
43346;DHT22;28937;51.160;4.146;2022-10-23T13:04:04;18.80;99.90
43346;DHT22;28937;51.160;4.146;2022-10-23T13:06:32;18.80;99.90
43346;DHT22;28937;51.160;4.146;2022-10-23T13:08:58;18.80;99.90
43346;DHT22;28937;51.160;4.146;2022-10-23T13:11:24;18.80;99.90
43346;DHT22;28937;51.160;4.146;2022-10-23T13:13:51;18.80;99.90
43346;DHT22;28937;51.160;4.146;2022-10-23T13:16:20;18.90;99.90
43346;DHT22;28937;51.160;4.146;2022-10-23T13:18:46;18.90;99.90
43346;DHT22;28937;51.160;4.146;2022-10-23T13:21:18;18.90;99.90
43346;DHT22;28937;51.160;4.146;2022-10-23T13:23:45;18.90;99.90
43346;DHT22;28937;51.160;4.146;2022-10-23T13:26:38;19.00;99.90
43346;DHT22;28937;51.160;4.146;2022-10-23T13:31:50;19.00;99.90
43346;DHT22;28937;51.160;4.146;2022-10-23T13:34:23;19.00;99.90
43346;DHT22;28937;51.160;4.146;2022-10-23T13:36:58;19.10;99.90
43346;DHT22;28937;51.160;4.146;2022-10-23T13:39:32;19.00;99.90
43346;DHT22;28937;51.160;4.146;2022-10-23T13:42:05;19.10;99.90
43346;DHT22;28937;51.160;4.146;2022-10-23T13:44:34;19.10;99.90
43346;DHT22;28937;51.160;4.146;2022-10-23T13:47:01;19.10;99.90
43346;DHT22;28937;51.160;4.146;2022-10-23T13:49:27;19.00;99.90
43346;DHT22;28937;51.160;4.146;2022-10-23T13:51:54;19.10;99.90
43346;DHT22;28937;51.160;4.146;2022-10-23T13:54:26;19.10;99.90
43346;DHT22;28937;51.160;4.146;2022-10-23T13:56:53;19.10;99.90
43346;DHT22;28937;51.160;4.146;2022-10-23T13:59:19;19.10;99.90
43346;DHT22;28937;51.160;4.146;2022-10-23T14:01:46;19.10;99.90
43346;DHT22;28937;51.160;4.146;2022-10-23T14:04:14;19.10;99.90
43346;DHT22;28937;51.160;4.146;2022-10-23T14:06:39;19.10;99.90
43346;DHT22;28937;51.160;4.146;2022-10-23T14:09:17;19.10;99.90
43346;DHT22;28937;51.160;4.146;2022-10-23T14:11:43;19.10;99.90
43346;DHT22;28937;51.160;4.146;2022-10-23T14:14:09;19.20;99.90
43346;DHT22;28937;51.160;4.146;2022-10-23T14:16:35;19.20;99.90
43346;DHT22;28937;51.160;4.146;2022-10-23T14:19:01;19.20;99.90
43346;DHT22;28937;51.160;4.146;2022-10-23T14:21:26;19.20;99.90
43346;DHT22;28937;51.160;4.146;2022-10-23T14:23:52;19.20;99.90
43346;DHT22;28937;51.160;4.146;2022-10-23T14:26:24;19.20;99.90
43346;DHT22;28937;51.160;4.146;2022-10-23T14:28:54;19.20;99.90
43346;DHT22;28937;51.160;4.146;2022-10-23T14:31:20;19.20;99.90
43346;DHT22;28937;51.160;4.146;2022-10-23T14:33:51;19.20;99.90
43346;DHT22;28937;51.160;4.146;2022-10-23T14:36:17;19.20;99.90
43346;DHT22;28937;51.160;4.146;2022-10-23T14:38:42;19.30;99.90
43346;DHT22;28937;51.160;4.146;2022-10-23T14:41:13;19.20;99.90
43346;DHT22;28937;51.160;4.146;2022-10-23T14:43:39;19.20;99.90
43346;DHT22;28937;51.160;4.146;2022-10-23T14:46:19;19.20;99.90
43346;DHT22;28937;51.160;4.146;2022-10-23T14:48:45;19.20;99.90
43346;DHT22;28937;51.160;4.146;2022-10-23T14:51:18;19.30;99.90
43346;DHT22;28937;51.160;4.146;2022-10-23T14:53:45;19.30;99.90
43346;DHT22;28937;51.160;4.146;2022-10-23T14:56:11;19.30;99.90
43346;DHT22;28937;51.160;4.146;2022-10-23T14:58:36;19.30;99.90
43346;DHT22;28937;51.160;4.146;2022-10-23T15:01:02;19.30;99.90
43346;DHT22;28937;51.160;4.146;2022-10-23T15:03:28;19.20;99.90
43346;DHT22;28937;51.160;4.146;2022-10-23T15:05:54;19.30;99.90
43346;DHT22;28937;51.160;4.146;2022-10-23T15:08:21;19.30;99.90
43346;DHT22;28937;51.160;4.146;2022-10-23T15:10:47;19.30;99.90
43346;DHT22;28937;51.160;4.146;2022-10-23T15:13:13;19.30;99.90
43346;DHT22;28937;51.160;4.146;2022-10-23T15:15:39;19.30;99.90
43346;DHT22;28937;51.160;4.146;2022-10-23T15:18:04;19.30;99.90
43346;DHT22;28937;51.160;4.146;2022-10-23T15:20:30;19.30;99.90
43346;DHT22;28937;51.160;4.146;2022-10-23T15:22:56;19.30;99.90
43346;DHT22;28937;51.160;4.146;2022-10-23T15:25:24;19.30;99.90
43346;DHT22;28937;51.160;4.146;2022-10-23T15:27:50;19.30;99.90
43346;DHT22;28937;51.160;4.146;2022-10-23T15:30:16;19.30;99.90
43346;DHT22;28937;51.160;4.146;2022-10-23T15:32:42;19.30;99.90
43346;DHT22;28937;51.160;4.146;2022-10-23T15:35:08;19.30;99.90
43346;DHT22;28937;51.160;4.146;2022-10-23T15:37:34;19.30;99.90
43346;DHT22;28937;51.160;4.146;2022-10-23T15:40:00;19.30;99.90
43346;DHT22;28937;51.160;4.146;2022-10-23T15:42:26;19.40;99.90
43346;DHT22;28937;51.160;4.146;2022-10-23T15:44:52;19.40;99.90
43346;DHT22;28937;51.160;4.146;2022-10-23T15:47:17;19.40;99.90
43346;DHT22;28937;51.160;4.146;2022-10-23T15:49:43;19.30;99.90
43346;DHT22;28937;51.160;4.146;2022-10-23T15:52:09;19.40;99.90
43346;DHT22;28937;51.160;4.146;2022-10-23T15:54:35;19.40;99.90
43346;DHT22;28937;51.160;4.146;2022-10-23T15:57:01;19.40;99.90
43346;DHT22;28937;51.160;4.146;2022-10-23T15:59:28;19.30;99.90
43346;DHT22;28937;51.160;4.146;2022-10-23T16:01:54;19.40;99.90
43346;DHT22;28937;51.160;4.146;2022-10-23T16:04:20;19.40;99.90
43346;DHT22;28937;51.160;4.146;2022-10-23T16:06:46;19.40;99.90
43346;DHT22;28937;51.160;4.146;2022-10-23T16:09:13;19.40;99.90
43346;DHT22;28937;51.160;4.146;2022-10-23T16:11:40;19.40;99.90
43346;DHT22;28937;51.160;4.146;2022-10-23T16:14:08;19.40;99.90
43346;DHT22;28937;51.160;4.146;2022-10-23T16:16:34;19.40;99.90
43346;DHT22;28937;51.160;4.146;2022-10-23T16:19:01;19.40;99.90
43346;DHT22;28937;51.160;4.146;2022-10-23T16:21:30;19.40;99.90
43346;DHT22;28937;51.160;4.146;2022-10-23T16:23:57;19.40;99.90
43346;DHT22;28937;51.160;4.146;2022-10-23T16:26:23;19.40;99.90
43346;DHT22;28937;51.160;4.146;2022-10-23T16:28:54;19.40;99.90
43346;DHT22;28937;51.160;4.146;2022-10-23T16:31:23;19.40;99.90
43346;DHT22;28937;51.160;4.146;2022-10-23T16:33:50;19.40;99.90
43346;DHT22;28937;51.160;4.146;2022-10-23T16:36:17;19.40;99.90
43346;DHT22;28937;51.160;4.146;2022-10-23T16:38:43;19.40;99.90
43346;DHT22;28937;51.160;4.146;2022-10-23T16:41:09;19.40;99.90
43346;DHT22;28937;51.160;4.146;2022-10-23T16:43:34;19.50;99.90
43346;DHT22;28937;51.160;4.146;2022-10-23T16:46:02;19.40;99.90
43346;DHT22;28937;51.160;4.146;2022-10-23T16:48:29;19.50;99.90
43346;DHT22;28937;51.160;4.146;2022-10-23T16:50:54;19.50;99.90
43346;DHT22;28937;51.160;4.146;2022-10-23T16:53:20;19.40;99.90
43346;DHT22;28937;51.160;4.146;2022-10-23T16:55:45;19.50;99.90
43346;DHT22;28937;51.160;4.146;2022-10-23T16:58:11;19.40;99.90
43346;DHT22;28937;51.160;4.146;2022-10-23T17:00:36;19.40;99.90
43346;DHT22;28937;51.160;4.146;2022-10-23T17:03:03;19.50;99.90
43346;DHT22;28937;51.160;4.146;2022-10-23T17:05:32;19.40;99.90
43346;DHT22;28937;51.160;4.146;2022-10-23T17:07:58;19.50;99.90
43346;DHT22;28937;51.160;4.146;2022-10-23T17:10:24;19.50;99.90
43346;DHT22;28937;51.160;4.146;2022-10-23T17:12:49;19.50;99.90